createdAt,value
2017-10-25T00:00:06.321Z,28.17
2017-10-25T00:03:48.581Z,29.13
2017-10-25T00:06:17.413Z,27.23
2017-10-25T00:08:46.310Z,32.23
2017-10-25T00:11:15.368Z,26.73
2017-10-25T00:13:44.396Z,26.60
2017-10-25T00:16:13.897Z,24.53
2017-10-25T00:18:42.994Z,32.20
2017-10-25T00:21:12.597Z,25.57
2017-10-25T00:23:41.202Z,23.07
2017-10-25T00:26:09.829Z,26.97
2017-10-25T00:28:38.404Z,33.70
2017-10-25T00:31:06.975Z,30.03
2017-10-25T00:33:35.602Z,29.93
2017-10-25T00:36:04.419Z,26.20
2017-10-25T00:38:33.917Z,26.57
2017-10-25T00:41:02.811Z,22.07
2017-10-25T00:43:31.603Z,20.97
2017-10-25T00:46:01.339Z,25.27
2017-10-25T00:48:31.403Z,48.33
2017-10-25T00:51:00.257Z,31.43
2017-10-25T00:53:29.380Z,21.77
2017-10-25T00:55:58.921Z,21.83
2017-10-25T00:58:27.795Z,25.00
2017-10-25T01:00:57.318Z,27.13
2017-10-25T01:03:26.313Z,17.83
2017-10-25T01:05:55.204Z,20.20
2017-10-25T01:08:23.997Z,17.20
2017-10-25T01:10:52.779Z,17.90
2017-10-25T01:13:21.874Z,20.97
2017-10-25T01:15:50.772Z,16.27
2017-10-25T01:18:19.976Z,14.87
2017-10-25T01:20:48.861Z,20.10
2017-10-25T01:23:17.853Z,15.20
2017-10-25T01:25:46.743Z,19.57
2017-10-25T01:28:16.747Z,18.77
2017-10-25T01:30:45.467Z,17.63
2017-10-25T01:33:14.337Z,19.63
2017-10-25T01:35:43.328Z,12.53
2017-10-25T01:38:12.348Z,30.57
2017-10-25T01:40:41.395Z,18.13
2017-10-25T01:43:10.109Z,26.63
2017-10-25T01:45:39.022Z,94.17
2017-10-25T01:48:08.080Z,20.40
2017-10-25T01:50:37.679Z,17.40
2017-10-25T01:53:06.429Z,17.17
2017-10-25T01:55:35.299Z,15.73
2017-10-25T01:58:04.855Z,16.00
2017-10-25T02:00:33.655Z,22.17
2017-10-25T02:03:02.414Z,15.60
2017-10-25T02:05:32.398Z,15.10
2017-10-25T02:08:01.048Z,25.67
2017-10-25T02:10:29.852Z,14.07
2017-10-25T02:12:58.954Z,14.13
2017-10-25T02:15:27.846Z,11.80
2017-10-25T02:17:56.732Z,14.27
2017-10-25T02:20:25.518Z,23.00
2017-10-25T02:22:54.305Z,19.73
2017-10-25T02:25:23.100Z,13.43
2017-10-25T02:27:51.924Z,23.23
2017-10-25T02:30:20.876Z,10.13
2017-10-25T02:32:50.181Z,18.60
2017-10-25T02:35:18.874Z,14.90
2017-10-25T02:37:47.509Z,13.13
2017-10-25T02:40:16.882Z,14.90
2017-10-25T02:42:45.594Z,22.73
2017-10-25T02:45:14.735Z,14.10
2017-10-25T02:47:43.627Z,15.07
2017-10-25T02:50:12.198Z,14.27
2017-10-25T02:52:40.838Z,17.23
2017-10-25T02:55:09.481Z,12.40
2017-10-25T02:57:38.168Z,17.80
2017-10-25T03:00:06.860Z,18.70
2017-10-25T03:02:35.745Z,12.27
2017-10-25T03:05:04.883Z,15.10
2017-10-25T03:07:33.984Z,11.40
2017-10-25T03:10:02.931Z,13.77
2017-10-25T03:12:31.813Z,13.43
2017-10-25T03:15:01.334Z,14.67
2017-10-25T03:17:30.608Z,17.83
2017-10-25T03:19:59.726Z,19.60
2017-10-25T03:22:28.821Z,11.97
2017-10-25T03:24:58.024Z,24.13
2017-10-25T03:27:26.821Z,20.43
2017-10-25T03:29:55.847Z,15.30
2017-10-25T03:32:24.794Z,17.70
2017-10-25T03:34:53.581Z,12.83
2017-10-25T03:37:22.675Z,15.10
2017-10-25T03:39:51.468Z,11.97
2017-10-25T03:42:20.373Z,12.87
2017-10-25T03:44:49.043Z,14.37
2017-10-25T03:47:17.739Z,13.13
2017-10-25T03:49:46.425Z,15.90
2017-10-25T03:52:15.419Z,16.60
2017-10-25T03:54:44.044Z,17.27
2017-10-25T03:57:12.653Z,18.17
2017-10-25T03:59:41.265Z,13.33
2017-10-25T04:02:09.890Z,13.43
2017-10-25T04:04:38.507Z,20.53
2017-10-25T04:07:07.109Z,13.90
2017-10-25T04:09:35.703Z,22.73
2017-10-25T04:12:05.079Z,16.87
2017-10-25T04:14:33.759Z,15.87
2017-10-25T04:17:02.506Z,12.60
2017-10-25T04:19:31.258Z,21.70
2017-10-25T04:22:00.056Z,22.03
2017-10-25T04:24:28.950Z,14.13
2017-10-25T04:26:57.834Z,22.00
2017-10-25T04:29:26.693Z,19.60
2017-10-25T04:31:55.421Z,11.10
2017-10-25T04:34:24.097Z,12.57
2017-10-25T04:36:52.784Z,22.27
2017-10-25T04:39:21.475Z,21.23
2017-10-25T04:41:50.826Z,17.10
2017-10-25T04:44:19.561Z,15.93
2017-10-25T04:46:48.246Z,29.93
2017-10-25T04:49:16.933Z,16.63
2017-10-25T04:51:46.031Z,17.63
2017-10-25T04:54:14.719Z,22.70
2017-10-25T04:56:43.400Z,14.50
2017-10-25T04:59:12.086Z,17.67
2017-10-25T05:01:40.977Z,14.20
2017-10-25T05:04:10.487Z,21.27
2017-10-25T05:06:39.523Z,19.20
2017-10-25T05:09:08.270Z,24.00
2017-10-25T05:11:37.158Z,13.93
2017-10-25T05:14:06.504Z,15.43
2017-10-25T05:16:35.347Z,95.10
2017-10-25T05:19:04.453Z,19.60
2017-10-25T05:21:34.980Z,19.10
2017-10-25T05:24:03.866Z,24.77
2017-10-25T05:26:32.552Z,16.57
2017-10-25T05:29:01.264Z,15.70
2017-10-25T05:31:30.872Z,21.67
2017-10-25T05:33:59.466Z,13.07
2017-10-25T05:36:28.028Z,17.13
2017-10-25T05:38:56.665Z,21.73
2017-10-25T05:41:25.304Z,13.00
2017-10-25T05:43:53.947Z,16.67
2017-10-25T05:46:22.674Z,11.67
2017-10-25T05:48:51.306Z,19.07
2017-10-25T05:51:20.776Z,12.67
2017-10-25T05:53:50.166Z,16.50
2017-10-25T05:56:18.914Z,13.20
2017-10-25T05:58:47.614Z,17.57
2017-10-25T06:01:16.513Z,15.60
2017-10-25T06:03:45.111Z,18.20
2017-10-25T06:06:13.694Z,15.00
2017-10-25T06:08:42.362Z,14.53
2017-10-25T06:11:11.018Z,15.80
2017-10-25T06:13:39.710Z,13.13
2017-10-25T06:16:08.426Z,12.57
2017-10-25T06:18:37.051Z,18.97
2017-10-25T06:21:05.718Z,16.40
2017-10-25T06:23:34.488Z,16.40
2017-10-25T06:26:03.173Z,16.37
2017-10-25T06:28:31.856Z,16.10
2017-10-25T06:31:00.801Z,14.97
2017-10-25T06:33:30.249Z,21.67
2017-10-25T06:35:58.902Z,16.60
2017-10-25T06:38:27.608Z,13.07
2017-10-25T06:40:57.080Z,25.73
2017-10-25T06:43:25.747Z,15.53
2017-10-25T06:45:54.456Z,21.80
2017-10-25T06:48:23.123Z,14.63
2017-10-25T06:50:51.814Z,22.87
2017-10-25T06:53:20.648Z,18.27
2017-10-25T06:55:49.454Z,20.57
2017-10-25T06:58:18.283Z,19.40
2017-10-25T07:00:48.275Z,36.33
2017-10-25T07:03:17.051Z,22.40
2017-10-25T07:05:45.698Z,20.33
2017-10-25T07:08:14.366Z,28.03
2017-10-25T07:10:43.746Z,37.67
2017-10-25T07:13:13.139Z,36.00
2017-10-25T07:15:41.750Z,22.63
2017-10-25T07:18:11.121Z,27.03
2017-10-25T07:20:39.718Z,20.77
2017-10-25T07:23:08.471Z,19.70
2017-10-25T07:25:37.123Z,21.57
2017-10-25T07:28:06.520Z,19.70
2017-10-25T07:30:35.190Z,20.17
2017-10-25T07:33:03.886Z,33.57
2017-10-25T07:35:33.308Z,21.63
2017-10-25T07:38:02.865Z,25.87
2017-10-25T07:40:31.541Z,19.40
2017-10-25T07:43:00.224Z,15.30
2017-10-25T07:45:28.871Z,13.50
2017-10-25T07:47:58.294Z,17.53
2017-10-25T07:50:26.973Z,18.20
2017-10-25T07:52:55.680Z,12.10
2017-10-25T07:55:24.319Z,21.53
2017-10-25T07:57:52.883Z,11.43
2017-10-25T08:00:21.658Z,17.13
2017-10-25T08:02:50.269Z,18.30
2017-10-25T08:05:18.896Z,16.57
2017-10-25T08:07:47.607Z,13.33
2017-10-25T08:10:16.308Z,16.13
2017-10-25T08:12:44.920Z,16.83
2017-10-25T08:15:14.350Z,13.63
2017-10-25T08:17:42.964Z,16.83
2017-10-25T08:20:11.631Z,10.80
2017-10-25T08:22:40.280Z,13.93
2017-10-25T08:25:09.735Z,12.90
2017-10-25T08:27:38.395Z,15.53
2017-10-25T08:30:07.211Z,14.37
2017-10-25T08:32:35.908Z,15.90
2017-10-25T08:35:04.569Z,12.97
2017-10-25T08:37:34.004Z,10.50
2017-10-25T08:40:02.615Z,8.57
2017-10-25T08:42:32.075Z,13.53
2017-10-25T08:45:00.890Z,9.50
2017-10-25T08:47:30.410Z,13.00
2017-10-25T08:49:58.989Z,25.43
2017-10-25T08:52:28.461Z,13.13
2017-10-25T08:54:57.146Z,9.73
2017-10-25T08:57:25.764Z,15.23
2017-10-25T08:59:55.261Z,10.17
2017-10-25T09:02:24.846Z,16.27
2017-10-25T09:04:54.307Z,9.47
2017-10-25T09:07:23.002Z,13.37
2017-10-25T09:09:52.563Z,18.73
2017-10-25T09:12:22.019Z,22.50
2017-10-25T09:14:50.676Z,13.40
2017-10-25T09:17:20.064Z,11.63
2017-10-25T09:19:49.639Z,12.70
2017-10-25T09:22:18.328Z,10.13
2017-10-25T09:24:46.951Z,10.33
2017-10-25T09:27:15.555Z,10.10
2017-10-25T09:29:44.271Z,12.07
2017-10-25T09:32:12.866Z,13.70
2017-10-25T09:34:41.463Z,15.03
2017-10-25T09:37:10.112Z,16.97
2017-10-25T09:39:38.723Z,7.50
2017-10-25T09:42:07.282Z,10.23
2017-10-25T09:44:36.284Z,9.20
2017-10-25T09:47:05.038Z,8.20
2017-10-25T09:49:33.633Z,7.43
2017-10-25T09:52:03.140Z,10.10
2017-10-25T09:54:32.503Z,6.47
2017-10-25T09:57:01.089Z,7.53
2017-10-25T09:59:29.750Z,23.27
2017-10-25T10:01:58.538Z,11.10
2017-10-25T10:04:27.124Z,11.30
2017-10-25T10:06:55.742Z,17.30
2017-10-25T10:09:24.292Z,14.70
2017-10-25T10:11:52.926Z,10.07
2017-10-25T10:14:22.343Z,11.50
2017-10-25T10:16:51.880Z,15.43
2017-10-25T10:19:20.772Z,15.23
2017-10-25T10:21:49.503Z,18.00
2017-10-25T10:24:18.869Z,9.03
2017-10-25T10:26:47.492Z,11.67
2017-10-25T10:29:16.175Z,13.50
2017-10-25T10:31:44.785Z,15.93
2017-10-25T10:34:13.406Z,11.50
2017-10-25T10:36:42.071Z,10.80
2017-10-25T10:39:10.770Z,21.83
2017-10-25T10:41:40.225Z,10.10
2017-10-25T10:44:08.970Z,16.20
2017-10-25T10:46:37.632Z,9.47
2017-10-25T10:49:06.235Z,17.43
2017-10-25T10:51:34.860Z,14.73
2017-10-25T10:54:03.452Z,13.40
2017-10-25T10:56:32.021Z,22.93
2017-10-25T10:59:00.777Z,15.57
2017-10-25T11:01:29.673Z,11.30
2017-10-25T11:03:59.153Z,10.07
2017-10-25T11:06:27.803Z,15.00
2017-10-25T11:08:57.364Z,12.33
2017-10-25T11:11:26.973Z,13.07
2017-10-25T11:13:55.761Z,12.20
2017-10-25T11:16:24.451Z,10.90
2017-10-25T11:18:53.234Z,11.90
2017-10-25T11:21:21.922Z,12.83
2017-10-25T11:23:50.529Z,16.47
2017-10-25T11:26:19.220Z,12.40
2017-10-25T11:28:47.846Z,13.23
2017-10-25T11:31:16.668Z,11.93
2017-10-25T11:33:45.357Z,13.53
2017-10-25T11:36:14.078Z,9.20
2017-10-25T11:38:43.623Z,9.00
2017-10-25T11:41:14.089Z,9.60
2017-10-25T11:43:42.727Z,6.63
2017-10-25T11:46:12.085Z,11.27
2017-10-25T11:48:40.863Z,13.40
2017-10-25T11:51:09.538Z,12.30
2017-10-25T11:53:38.120Z,17.43
2017-10-25T11:56:06.839Z,14.50
2017-10-25T11:58:35.409Z,16.20
2017-10-25T12:01:04.072Z,16.67
2017-10-25T12:03:32.732Z,12.30
2017-10-25T12:06:01.341Z,12.10
2017-10-25T12:08:29.967Z,16.83
2017-10-25T12:10:58.707Z,13.90
2017-10-25T12:13:27.360Z,14.10
2017-10-25T12:15:57.286Z,10.97
2017-10-25T12:18:26.319Z,15.53
2017-10-25T12:20:54.937Z,13.57
2017-10-25T12:23:23.893Z,19.93
2017-10-25T12:25:52.516Z,15.63
2017-10-25T12:28:21.214Z,11.07
2017-10-25T12:30:49.885Z,12.13
2017-10-25T12:33:18.877Z,16.30
2017-10-25T12:35:49.225Z,10.07
2017-10-25T12:38:22.698Z,12.93
2017-10-25T12:40:51.369Z,17.77
2017-10-25T12:43:20.266Z,14.63
2017-10-25T12:45:49.105Z,12.00
2017-10-25T12:48:17.820Z,13.80
2017-10-25T12:50:46.575Z,12.43
2017-10-25T12:53:15.332Z,12.80
2017-10-25T12:55:44.396Z,14.43
2017-10-25T12:58:13.010Z,14.83
2017-10-25T13:00:41.869Z,22.67
2017-10-25T13:03:10.564Z,17.10
2017-10-25T13:05:39.176Z,16.93
2017-10-25T13:08:07.822Z,12.43
2017-10-25T13:10:49.000Z,15.40
2017-10-25T13:13:26.305Z,11.57
2017-10-25T13:15:57.258Z,10.93
2017-10-25T13:18:49.745Z,10.77
2017-10-25T13:21:18.438Z,10.03
2017-10-25T13:23:47.076Z,8.70
2017-10-25T13:26:15.841Z,9.60
2017-10-25T13:28:44.478Z,25.73
2017-10-25T13:31:13.167Z,9.93
2017-10-25T13:33:41.908Z,12.27
2017-10-25T13:36:10.667Z,10.23
2017-10-25T13:38:39.339Z,8.10
2017-10-25T13:41:08.270Z,15.90
2017-10-25T13:43:37.110Z,9.40
2017-10-25T13:46:05.916Z,10.67
2017-10-25T13:48:35.106Z,11.60
2017-10-25T13:51:03.877Z,10.00
2017-10-25T13:53:32.525Z,9.43
2017-10-25T13:56:01.410Z,13.17
2017-10-25T13:58:30.152Z,16.37
2017-10-25T14:00:58.860Z,12.23
2017-10-25T14:03:27.515Z,9.23
2017-10-25T14:05:56.295Z,9.80
2017-10-25T14:08:26.730Z,10.33
2017-10-25T14:10:55.516Z,9.67
2017-10-25T14:13:24.921Z,13.27
2017-10-25T14:15:53.667Z,16.07
2017-10-25T14:18:22.365Z,9.13
2017-10-25T14:20:51.075Z,9.30
2017-10-25T14:23:19.723Z,22.00
2017-10-25T14:25:48.461Z,11.17
2017-10-25T14:28:28.866Z,10.47
2017-10-25T14:30:57.464Z,13.00
2017-10-25T14:33:26.244Z,22.07
2017-10-25T14:35:55.120Z,12.63
2017-10-25T14:38:23.852Z,14.63
2017-10-25T14:40:53.263Z,12.27
2017-10-25T14:43:21.989Z,15.70
2017-10-25T14:45:51.461Z,14.23
2017-10-25T14:48:20.141Z,11.60
2017-10-25T14:50:48.879Z,11.50
2017-10-25T14:53:17.592Z,11.10
2017-10-25T14:55:46.346Z,15.03
2017-10-25T14:58:15.065Z,9.93
2017-10-25T15:00:43.783Z,11.83
2017-10-25T15:03:12.445Z,13.27
2017-10-25T15:05:41.178Z,12.50
2017-10-25T15:08:10.014Z,11.90
2017-10-25T15:10:39.588Z,14.20
2017-10-25T15:13:08.353Z,15.80
2017-10-25T15:15:37.807Z,11.73
2017-10-25T15:18:06.547Z,10.23
2017-10-25T15:20:35.160Z,10.80
2017-10-25T15:23:03.788Z,17.53
2017-10-25T15:25:32.375Z,16.00
2017-10-25T15:28:01.740Z,14.20
2017-10-25T15:30:30.425Z,18.73
2017-10-25T15:32:59.042Z,12.40
2017-10-25T15:35:27.665Z,13.23
2017-10-25T15:37:56.337Z,12.73
2017-10-25T15:40:25.003Z,25.53
2017-10-25T15:42:53.737Z,17.53
2017-10-25T15:45:22.378Z,15.73
2017-10-25T15:47:50.965Z,17.50
2017-10-25T15:50:20.357Z,13.67
2017-10-25T15:52:49.086Z,17.70
2017-10-25T15:55:17.727Z,17.00
2017-10-25T15:57:46.380Z,13.57
2017-10-25T16:00:15.167Z,17.97
2017-10-25T16:02:44.621Z,18.30
2017-10-25T16:05:14.103Z,24.73
2017-10-25T16:07:42.749Z,21.57
2017-10-25T16:10:11.490Z,22.00
2017-10-25T16:12:41.198Z,21.57
2017-10-25T16:15:10.661Z,22.13
2017-10-25T16:17:39.297Z,19.20
2017-10-25T16:20:07.979Z,80.03
2017-10-25T16:22:37.514Z,24.33
2017-10-25T16:25:06.330Z,27.97
2017-10-25T16:27:34.932Z,35.10
2017-10-25T16:30:03.670Z,19.73
2017-10-25T16:32:32.329Z,26.30
2017-10-25T16:35:00.929Z,22.83
2017-10-25T16:37:29.607Z,26.30
2017-10-25T16:39:58.240Z,24.90
2017-10-25T16:42:26.855Z,28.33
2017-10-25T16:44:55.616Z,26.80
2017-10-25T16:47:24.404Z,25.03
2017-10-25T16:49:53.045Z,20.43
2017-10-25T16:52:22.494Z,31.00
2017-10-25T16:54:51.123Z,25.57
2017-10-25T16:57:19.864Z,31.17
2017-10-25T16:59:48.544Z,24.30
2017-10-25T17:02:17.169Z,35.07
2017-10-25T17:04:45.781Z,29.20
2017-10-25T17:07:14.504Z,30.00
2017-10-25T17:09:43.136Z,39.10
2017-10-25T17:12:12.176Z,30.23
2017-10-25T17:14:40.866Z,30.63
2017-10-25T17:17:09.562Z,26.40
2017-10-25T17:19:38.266Z,30.77
2017-10-25T17:22:07.975Z,33.10
2017-10-25T17:24:38.302Z,23.43
2017-10-25T17:27:08.299Z,38.10
2017-10-25T17:29:36.912Z,33.70
2017-10-25T17:32:07.287Z,29.00
2017-10-25T17:34:36.928Z,34.23
2017-10-25T17:37:08.144Z,27.40
2017-10-25T17:39:36.831Z,34.33
2017-10-25T17:42:05.965Z,30.43
2017-10-25T17:44:34.632Z,30.30
2017-10-25T17:47:03.420Z,28.37
2017-10-25T17:49:32.110Z,30.87
2017-10-25T17:52:00.794Z,27.03
2017-10-25T17:54:31.454Z,34.33
2017-10-25T17:57:01.585Z,43.00
2017-10-25T17:59:33.324Z,34.20
2017-10-25T18:02:02.399Z,23.60
2017-10-25T18:04:31.162Z,34.87
2017-10-25T18:07:01.408Z,40.37
2017-10-25T18:09:30.102Z,34.13
2017-10-25T18:11:58.724Z,37.87
2017-10-25T18:14:27.569Z,28.30
2017-10-25T18:16:56.187Z,28.87
2017-10-25T18:19:26.106Z,30.13
2017-10-25T18:21:54.787Z,29.05
2017-10-25T18:24:24.184Z,33.20
2017-10-25T18:26:52.970Z,32.77
2017-10-25T18:29:21.724Z,43.33
2017-10-25T18:31:50.285Z,28.50
2017-10-25T18:34:20.149Z,35.27
2017-10-25T18:36:49.212Z,27.40
2017-10-25T18:39:18.594Z,30.70
2017-10-25T18:41:49.740Z,32.67
2017-10-25T18:44:19.349Z,35.67
2017-10-25T18:46:48.071Z,35.93
2017-10-25T18:49:16.758Z,38.13
2017-10-25T18:51:45.444Z,51.20
2017-10-25T18:54:14.404Z,33.07
2017-10-25T18:56:43.750Z,48.63
2017-10-25T18:59:12.933Z,39.67
2017-10-25T19:01:41.632Z,41.83
2017-10-25T19:04:11.232Z,41.90
2017-10-25T19:06:39.945Z,39.63
2017-10-25T19:09:08.570Z,41.37
2017-10-25T19:11:37.235Z,43.17
2017-10-25T19:14:05.842Z,46.47
2017-10-25T19:16:34.520Z,48.13
2017-10-25T19:19:03.209Z,44.37
2017-10-25T19:21:31.863Z,42.23
2017-10-25T19:24:01.382Z,44.07
2017-10-25T19:26:30.222Z,46.23
2017-10-25T19:28:59.513Z,43.10
2017-10-25T19:31:30.769Z,38.60
2017-10-25T19:33:59.398Z,45.27
2017-10-25T19:36:31.455Z,45.63
2017-10-25T19:39:01.687Z,126.63
2017-10-25T19:41:30.373Z,38.87
2017-10-25T19:43:59.080Z,40.57
2017-10-25T19:46:27.742Z,47.23
2017-10-25T19:48:56.797Z,40.60
2017-10-25T19:57:47.168Z,42.50
2017-10-25T20:00:16.272Z,43.33
2017-10-25T20:02:44.972Z,43.80
2017-10-25T20:05:13.606Z,48.53
2017-10-25T20:07:42.751Z,44.20
2017-10-25T20:10:12.240Z,46.97
2017-10-25T20:12:40.948Z,42.87
2017-10-25T20:15:09.555Z,40.00
2017-10-25T20:17:38.187Z,38.53
2017-10-25T20:20:06.988Z,49.67
2017-10-25T20:22:35.623Z,44.63
2017-10-25T20:25:04.358Z,54.50
2017-10-25T20:27:32.997Z,41.27
2017-10-25T20:30:01.575Z,38.87
2017-10-25T20:32:30.385Z,62.93
2017-10-25T20:34:59.383Z,49.57
2017-10-25T20:37:27.989Z,47.83
2017-10-25T20:39:56.678Z,44.83
2017-10-25T20:42:25.574Z,43.87
2017-10-25T20:44:54.263Z,58.53
2017-10-25T20:47:23.097Z,45.10
2017-10-25T20:49:51.838Z,40.77
2017-10-25T20:52:20.522Z,42.57
2017-10-25T20:54:49.207Z,56.50
2017-10-25T20:57:18.098Z,49.73
2017-10-25T20:59:46.789Z,46.93
2017-10-25T21:02:15.572Z,42.27
2017-10-25T21:04:45.186Z,43.80
2017-10-25T21:07:14.041Z,53.83
2017-10-25T21:09:42.965Z,51.03
2017-10-25T21:12:11.855Z,49.27
2017-10-25T21:14:40.558Z,51.30
2017-10-25T21:17:09.434Z,48.67
2017-10-25T21:19:38.327Z,47.23
2017-10-25T21:22:08.442Z,47.20
2017-10-25T21:24:37.346Z,52.83
2017-10-25T21:27:06.227Z,52.40
2017-10-25T21:29:34.910Z,71.97
2017-10-25T21:32:03.547Z,53.60
2017-10-25T21:34:32.283Z,63.50
2017-10-25T21:37:01.182Z,61.93
2017-10-25T21:39:30.019Z,53.33
2017-10-25T21:41:58.751Z,57.57
2017-10-25T21:44:28.464Z,55.20
2017-10-25T21:46:57.586Z,48.70
2017-10-25T21:49:26.460Z,47.50
2017-10-25T21:51:55.340Z,48.90
2017-10-25T21:54:24.026Z,49.57
2017-10-25T21:56:52.864Z,58.93
2017-10-25T21:59:21.931Z,53.27
2017-10-25T22:01:50.912Z,48.07
2017-10-25T22:04:20.115Z,51.33
2017-10-25T22:06:50.201Z,55.57
2017-10-25T22:09:19.219Z,48.77
2017-10-25T22:11:48.020Z,47.17
2017-10-25T22:14:17.003Z,50.37
2017-10-25T22:16:45.643Z,44.60
2017-10-25T22:19:14.592Z,51.20
2017-10-25T22:21:43.671Z,47.23
2017-10-25T22:24:12.504Z,48.37
2017-10-25T22:26:41.212Z,45.67
2017-10-25T22:29:10.138Z,52.17
2017-10-25T22:31:38.825Z,46.17
2017-10-25T22:34:07.662Z,45.83
2017-10-25T22:36:36.622Z,42.30
2017-10-25T22:39:05.516Z,59.60
2017-10-25T22:41:34.389Z,45.93
2017-10-25T22:47:00.448Z,38.50
2017-10-25T22:49:29.365Z,39.23
2017-10-25T22:51:58.814Z,43.40
2017-10-25T22:54:27.658Z,39.03
2017-10-25T22:56:57.224Z,44.53
2017-10-25T22:59:26.113Z,54.17
2017-10-25T23:01:55.047Z,39.33
2017-10-25T23:04:24.714Z,36.23
2017-10-25T23:06:53.392Z,45.00
2017-10-25T23:09:22.086Z,38.30
2017-10-25T23:11:50.768Z,40.77
2017-10-25T23:14:19.452Z,36.93
2017-10-25T23:16:48.344Z,37.00
2017-10-25T23:19:17.948Z,35.97
2017-10-25T23:21:46.587Z,35.30
2017-10-25T23:24:15.527Z,34.20
2017-10-25T23:26:44.385Z,35.50
2017-10-25T23:29:13.591Z,31.23
2017-10-25T23:31:42.313Z,42.17
2017-10-25T23:34:11.188Z,39.70
2017-10-25T23:36:41.128Z,30.20
2017-10-25T23:39:10.819Z,39.17
2017-10-25T23:41:39.655Z,41.53
2017-10-25T23:44:08.808Z,34.20
2017-10-25T23:46:37.699Z,35.70
2017-10-25T23:49:06.326Z,34.43
2017-10-25T23:51:35.249Z,28.30
2017-10-25T23:54:04.151Z,30.03
2017-10-25T23:56:33.399Z,21.57
2017-10-25T23:59:02.976Z,26.50
